createdAt,value
2018-11-05T00:01:04.390Z,99.90
2018-11-05T00:03:33.188Z,99.90
2018-11-05T00:06:02.529Z,99.90
2018-11-05T00:08:31.417Z,99.90
2018-11-05T00:11:00.322Z,99.90
2018-11-05T00:13:29.212Z,99.90
2018-11-05T00:15:58.025Z,99.90
2018-11-05T00:18:26.818Z,99.90
2018-11-05T00:20:55.585Z,99.90
2018-11-05T00:23:24.375Z,99.90
2018-11-05T00:25:53.205Z,99.90
2018-11-05T00:28:21.992Z,99.90
2018-11-05T00:30:51.106Z,99.90
2018-11-05T00:33:19.923Z,99.90
2018-11-05T00:35:48.768Z,99.90
2018-11-05T00:38:17.590Z,99.90
2018-11-05T00:40:46.409Z,99.90
2018-11-05T00:43:15.215Z,99.90
2018-11-05T00:45:44.107Z,99.90
2018-11-05T00:48:12.852Z,99.90
2018-11-05T00:50:41.772Z,99.90
2018-11-05T00:53:10.580Z,99.90
2018-11-05T00:55:39.484Z,99.90
2018-11-05T00:58:08.359Z,99.90
2018-11-05T01:00:37.319Z,99.90
2018-11-05T01:03:06.272Z,99.90
2018-11-05T01:05:35.158Z,99.90
2018-11-05T01:08:04.537Z,99.90
2018-11-05T01:10:33.366Z,99.90
2018-11-05T01:13:02.229Z,99.90
2018-11-05T01:15:31.055Z,99.90
2018-11-05T01:17:59.838Z,99.90
2018-11-05T01:20:28.721Z,99.90
2018-11-05T01:22:57.552Z,99.90
2018-11-05T01:25:26.438Z,99.90
2018-11-05T01:27:55.228Z,99.90
2018-11-05T01:30:24.048Z,99.90
2018-11-05T01:32:52.863Z,99.90
2018-11-05T01:35:21.712Z,99.90
2018-11-05T01:37:50.520Z,99.90
2018-11-05T01:40:19.473Z,99.90
2018-11-05T01:42:48.252Z,99.90
2018-11-05T01:45:17.045Z,99.90
2018-11-05T01:47:45.855Z,99.90
2018-11-05T01:50:16.011Z,99.90
2018-11-05T01:52:45.119Z,99.90
2018-11-05T01:55:13.944Z,99.90
2018-11-05T01:57:42.839Z,99.90
2018-11-05T02:00:13.486Z,99.90
2018-11-05T02:02:42.465Z,99.90
2018-11-05T02:05:11.589Z,99.90
2018-11-05T02:07:41.950Z,99.90
2018-11-05T02:10:13.241Z,99.90
2018-11-05T02:12:42.041Z,99.90
2018-11-05T02:15:11.329Z,99.90
2018-11-05T02:17:41.225Z,99.90
2018-11-05T02:20:10.223Z,99.90
2018-11-05T02:22:39.365Z,99.90
2018-11-05T02:25:09.035Z,99.90
2018-11-05T02:27:37.888Z,99.90
2018-11-05T02:30:09.687Z,99.90
2018-11-05T02:32:38.492Z,99.90
2018-11-05T02:35:08.448Z,99.90
2018-11-05T02:37:37.332Z,99.90
2018-11-05T02:40:08.918Z,99.90
2018-11-05T02:42:37.822Z,99.90
2018-11-05T02:45:07.586Z,99.90
2018-11-05T02:47:36.609Z,99.90
2018-11-05T02:50:06.137Z,99.90
2018-11-05T02:52:34.952Z,99.90
2018-11-05T02:55:03.926Z,99.90
2018-11-05T02:57:32.840Z,99.90
2018-11-05T03:00:01.669Z,99.90
2018-11-05T03:02:36.657Z,99.90
2018-11-05T03:05:06.960Z,99.90
2018-11-05T03:07:35.772Z,99.90
2018-11-05T03:10:05.731Z,99.90
2018-11-05T03:12:34.569Z,99.90
2018-11-05T03:15:03.478Z,99.90
2018-11-05T03:17:32.279Z,99.90
2018-11-05T03:20:01.527Z,99.90
2018-11-05T03:22:30.589Z,99.90
2018-11-05T03:24:59.400Z,99.90
2018-11-05T03:27:28.237Z,99.90
2018-11-05T03:29:57.051Z,99.90
2018-11-05T03:32:25.845Z,99.90
2018-11-05T03:34:54.645Z,99.90
2018-11-05T03:37:23.833Z,99.90
2018-11-05T03:39:52.822Z,99.90
2018-11-05T03:42:21.661Z,99.90
2018-11-05T03:44:50.479Z,99.90
2018-11-05T03:47:19.267Z,99.90
2018-11-05T03:49:48.149Z,99.90
2018-11-05T03:52:16.887Z,99.90
2018-11-05T03:54:45.670Z,99.90
2018-11-05T03:57:14.472Z,99.90
2018-11-05T03:59:43.289Z,99.90
2018-11-05T04:02:12.092Z,99.90
2018-11-05T04:04:40.926Z,99.90
2018-11-05T04:07:09.765Z,99.90
2018-11-05T04:09:38.588Z,99.90
2018-11-05T04:12:07.458Z,99.90
2018-11-05T04:14:36.292Z,99.90
2018-11-05T04:17:05.375Z,99.90
2018-11-05T04:19:34.197Z,99.90
2018-11-05T04:22:03.032Z,99.90
2018-11-05T04:24:31.827Z,99.90
2018-11-05T04:27:01.182Z,99.90
2018-11-05T04:29:30.536Z,99.90
2018-11-05T04:31:59.939Z,99.90
2018-11-05T04:34:28.838Z,99.90
2018-11-05T04:36:59.065Z,99.90
2018-11-05T04:39:28.413Z,99.90
2018-11-05T04:42:01.549Z,99.90
2018-11-05T04:44:30.319Z,99.90
2018-11-05T04:46:59.180Z,99.90
2018-11-05T04:49:27.943Z,99.90
2018-11-05T04:51:56.730Z,99.90
2018-11-05T04:54:25.494Z,99.90
2018-11-05T04:56:54.367Z,99.90
2018-11-05T04:59:23.115Z,99.90
2018-11-05T05:01:51.859Z,99.90
2018-11-05T05:04:20.712Z,99.90
2018-11-05T05:06:49.428Z,99.90
2018-11-05T05:09:18.170Z,99.90
2018-11-05T05:11:46.955Z,99.90
2018-11-05T05:14:15.738Z,99.90
2018-11-05T05:16:44.501Z,99.90
2018-11-05T05:19:13.236Z,99.90
2018-11-05T05:21:42.034Z,99.90
2018-11-05T05:24:12.009Z,99.90
2018-11-05T05:26:40.836Z,99.90
2018-11-05T05:29:09.803Z,99.90
2018-11-05T05:31:38.723Z,99.90
2018-11-05T05:34:07.820Z,99.90
2018-11-05T05:36:36.629Z,99.90
2018-11-05T05:39:07.519Z,99.90
2018-11-05T05:41:36.344Z,99.90
2018-11-05T05:44:05.187Z,99.90
2018-11-05T05:46:33.928Z,99.90
2018-11-05T05:49:02.741Z,99.90
2018-11-05T05:51:31.502Z,99.90
2018-11-05T05:54:00.435Z,99.90
2018-11-05T05:56:29.256Z,99.90
2018-11-05T05:58:58.080Z,99.90
2018-11-05T06:01:26.944Z,99.90
2018-11-05T06:03:56.885Z,99.90
2018-11-05T06:06:25.657Z,99.90
2018-11-05T06:08:54.442Z,99.90
2018-11-05T06:11:23.252Z,99.90
2018-11-05T06:13:52.024Z,99.90
2018-11-05T06:16:20.807Z,99.90
2018-11-05T06:18:49.538Z,99.90
2018-11-05T06:21:18.398Z,99.90
2018-11-05T06:23:47.264Z,99.90
2018-11-05T06:26:16.059Z,99.90
2018-11-05T06:28:44.845Z,99.90
2018-11-05T06:31:13.633Z,99.90
2018-11-05T06:33:42.390Z,99.90
2018-11-05T06:36:11.168Z,99.90
2018-11-05T06:38:40.039Z,99.90
2018-11-05T06:41:08.985Z,99.90
2018-11-05T06:43:37.738Z,99.90
2018-11-05T06:46:06.640Z,99.90
2018-11-05T06:48:35.395Z,99.90
2018-11-05T06:51:04.155Z,99.90
2018-11-05T06:53:32.869Z,99.90
2018-11-05T06:56:01.618Z,99.90
2018-11-05T06:58:30.399Z,99.90
2018-11-05T07:00:59.189Z,99.90
2018-11-05T07:03:27.987Z,99.90
2018-11-05T07:05:56.992Z,99.90
2018-11-05T07:08:25.756Z,99.90
2018-11-05T07:10:54.555Z,99.90
2018-11-05T07:13:23.391Z,99.90
2018-11-05T07:15:52.175Z,99.90
2018-11-05T07:18:21.005Z,99.90
2018-11-05T07:20:49.742Z,99.90
2018-11-05T07:23:18.462Z,99.90
2018-11-05T07:25:47.220Z,99.90
2018-11-05T07:28:15.948Z,99.90
2018-11-05T07:30:44.743Z,99.90
2018-11-05T07:33:13.570Z,99.90
2018-11-05T07:35:42.369Z,99.90
2018-11-05T07:38:11.188Z,99.90
2018-11-05T07:40:40.049Z,99.90
2018-11-05T07:43:08.830Z,99.90
2018-11-05T07:45:37.595Z,99.90
2018-11-05T07:48:06.679Z,99.90
2018-11-05T07:50:35.471Z,99.90
2018-11-05T07:53:04.255Z,99.90
2018-11-05T07:55:33.036Z,99.90
2018-11-05T07:58:01.798Z,99.90
2018-11-05T08:00:35.717Z,99.90
2018-11-05T08:03:04.519Z,99.90
2018-11-05T08:05:33.312Z,99.90
2018-11-05T08:08:02.065Z,99.90
2018-11-05T08:10:30.901Z,99.90
2018-11-05T08:12:59.662Z,99.90
2018-11-05T08:15:28.471Z,99.90
2018-11-05T08:17:57.454Z,99.90
2018-11-05T08:20:26.242Z,99.90
2018-11-05T08:22:55.035Z,99.90
2018-11-05T08:25:23.770Z,99.90
2018-11-05T08:27:52.551Z,99.90
2018-11-05T08:30:22.546Z,99.90
2018-11-05T08:32:51.339Z,99.90
2018-11-05T08:35:21.047Z,99.90
2018-11-05T08:37:50.307Z,99.90
2018-11-05T08:40:23.665Z,99.90
2018-11-05T08:42:53.140Z,99.90
2018-11-05T08:45:23.234Z,99.90
2018-11-05T08:47:51.988Z,99.90
2018-11-05T08:50:22.046Z,99.90
2018-11-05T08:52:50.715Z,99.90
2018-11-05T08:55:23.751Z,99.90
2018-11-05T08:57:52.488Z,99.90
2018-11-05T09:00:26.356Z,99.90
2018-11-05T09:02:55.595Z,99.90
2018-11-05T09:05:24.561Z,99.90
2018-11-05T09:07:54.141Z,99.90
2018-11-05T09:10:23.061Z,99.90
2018-11-05T09:12:51.748Z,99.90
2018-11-05T09:15:21.401Z,99.90
2018-11-05T09:17:50.369Z,99.90
2018-11-05T09:20:19.750Z,99.90
2018-11-05T09:22:49.227Z,99.90
2018-11-05T09:25:18.222Z,99.90
2018-11-05T09:27:47.102Z,99.90
2018-11-05T09:30:20.231Z,99.90
2018-11-05T09:32:49.000Z,99.90
2018-11-05T09:35:17.904Z,99.90
2018-11-05T09:37:46.751Z,99.90
2018-11-05T09:40:17.380Z,99.90
2018-11-05T09:42:46.738Z,99.90
2018-11-05T09:45:17.799Z,99.90
2018-11-05T09:47:47.054Z,99.90
2018-11-05T09:50:16.164Z,99.90
2018-11-05T09:52:44.898Z,99.90
2018-11-05T09:55:14.183Z,99.90
2018-11-05T09:57:43.218Z,99.90
2018-11-05T10:00:14.507Z,99.90
2018-11-05T10:02:48.446Z,99.90
2018-11-05T10:05:17.558Z,99.90
2018-11-05T10:07:46.507Z,99.90
2018-11-05T10:10:16.111Z,99.90
2018-11-05T10:12:44.979Z,99.90
2018-11-05T10:15:14.773Z,99.90
2018-11-05T10:17:43.526Z,99.90
2018-11-05T10:20:16.572Z,99.90
2018-11-05T10:22:45.711Z,99.90
2018-11-05T10:25:14.995Z,99.90
2018-11-05T10:27:43.813Z,99.90
2018-11-05T10:30:14.845Z,99.90
2018-11-05T10:32:44.120Z,99.90
2018-11-05T10:35:13.663Z,99.90
2018-11-05T10:37:42.450Z,99.90
2018-11-05T10:40:14.111Z,99.90
2018-11-05T10:42:43.711Z,99.90
2018-11-05T10:45:13.793Z,99.90
2018-11-05T10:47:42.623Z,99.90
2018-11-05T10:50:12.946Z,99.90
2018-11-05T10:52:42.197Z,99.90
2018-11-05T10:55:11.027Z,99.90
2018-11-05T10:57:40.468Z,99.90
2018-11-05T11:00:17.457Z,99.90
2018-11-05T11:03:19.209Z,99.90
2018-11-05T11:05:48.031Z,99.90
2018-11-05T11:08:16.850Z,99.90
2018-11-05T11:10:46.504Z,99.90
2018-11-05T11:13:15.360Z,99.90
2018-11-05T11:15:44.140Z,99.90
2018-11-05T11:18:12.952Z,99.90
2018-11-05T11:20:41.728Z,99.90
2018-11-05T11:23:10.561Z,99.90
2018-11-05T11:25:39.325Z,99.90
2018-11-05T11:28:08.375Z,99.90
2018-11-05T11:30:37.181Z,99.90
2018-11-05T11:33:06.239Z,99.90
2018-11-05T11:35:35.087Z,99.90
2018-11-05T11:38:03.971Z,99.90
2018-11-05T11:40:32.718Z,99.90
2018-11-05T11:43:01.526Z,99.90
2018-11-05T11:45:30.300Z,99.90
2018-11-05T11:47:59.110Z,99.90
2018-11-05T11:50:27.909Z,99.90
2018-11-05T11:52:56.729Z,99.90
2018-11-05T11:55:25.456Z,99.90
2018-11-05T11:57:54.240Z,99.90
2018-11-05T12:00:24.308Z,99.90
2018-11-05T12:02:53.709Z,99.90
2018-11-05T12:05:22.883Z,99.90
2018-11-05T12:07:51.591Z,99.90
2018-11-05T12:10:22.173Z,99.90
2018-11-05T12:12:51.026Z,99.90
2018-11-05T12:15:20.498Z,99.90
2018-11-05T12:17:50.304Z,99.90
2018-11-05T12:20:20.354Z,99.90
2018-11-05T12:22:49.605Z,99.80
2018-11-05T12:25:18.492Z,99.40
2018-11-05T12:27:47.339Z,98.50
2018-11-05T12:30:18.058Z,98.40
2018-11-05T12:32:47.590Z,98.10
2018-11-05T12:35:16.411Z,97.90
2018-11-05T12:37:46.350Z,98.00
2018-11-05T12:40:16.288Z,97.20
2018-11-05T12:42:46.291Z,96.10
2018-11-05T12:45:15.128Z,95.50
2018-11-05T12:47:43.924Z,95.40
2018-11-05T12:50:18.178Z,94.50
2018-11-05T12:52:47.771Z,94.60
2018-11-05T12:55:16.760Z,93.50
2018-11-05T12:57:45.733Z,93.30
2018-11-05T13:00:18.448Z,93.60
2018-11-05T13:02:53.716Z,93.20
2018-11-05T13:05:23.083Z,92.90
2018-11-05T13:07:51.993Z,92.70
2018-11-05T13:10:20.885Z,91.50
2018-11-05T13:12:49.748Z,91.60
2018-11-05T13:15:18.634Z,90.30
2018-11-05T13:17:47.328Z,90.00
2018-11-05T13:20:18.138Z,87.60
2018-11-05T13:22:47.232Z,88.50
2018-11-05T13:25:16.088Z,87.10
2018-11-05T13:27:46.200Z,87.40
2018-11-05T13:30:15.525Z,86.60
2018-11-05T13:32:44.686Z,86.50
2018-11-05T13:35:14.815Z,87.40
2018-11-05T13:37:44.237Z,86.80
2018-11-05T13:40:14.647Z,87.60
2018-11-05T13:42:43.823Z,88.00
2018-11-05T13:45:13.686Z,88.70
2018-11-05T13:47:43.183Z,90.40
2018-11-05T13:50:12.434Z,91.20
2018-11-05T13:52:41.365Z,91.40
2018-11-05T13:55:12.259Z,92.50
2018-11-05T13:57:41.797Z,92.80
2018-11-05T14:00:12.810Z,93.40
2018-11-05T14:02:41.587Z,94.00
2018-11-05T14:05:11.029Z,94.50
2018-11-05T14:07:39.992Z,94.90
2018-11-05T14:10:12.840Z,94.70
2018-11-05T14:12:42.456Z,95.30
2018-11-05T14:15:11.278Z,95.50
2018-11-05T14:17:40.775Z,94.90
2018-11-05T14:20:10.636Z,95.70
2018-11-05T14:22:39.439Z,95.90
2018-11-05T14:25:10.112Z,95.80
2018-11-05T14:27:39.250Z,96.20
2018-11-05T14:30:09.200Z,96.20
2018-11-05T14:32:38.067Z,96.50
2018-11-05T14:35:09.496Z,95.60
2018-11-05T14:37:45.929Z,96.50
2018-11-05T14:40:18.149Z,96.00
2018-11-05T14:42:48.916Z,95.80
2018-11-05T14:45:18.908Z,95.20
2018-11-05T14:47:48.180Z,95.40
2018-11-05T14:50:18.469Z,95.20
2018-11-05T14:52:47.307Z,95.50
2018-11-05T14:55:17.378Z,95.20
2018-11-05T14:57:47.244Z,94.90
2018-11-05T15:00:18.083Z,95.70
2018-11-05T15:02:47.795Z,95.90
2018-11-05T15:05:16.801Z,96.20
2018-11-05T15:07:46.605Z,96.40
2018-11-05T15:10:16.584Z,97.00
2018-11-05T15:12:45.625Z,97.50
2018-11-05T15:15:15.011Z,98.20
2018-11-05T15:17:44.461Z,98.90
2018-11-05T15:20:15.081Z,99.60
2018-11-05T15:22:44.795Z,99.90
2018-11-05T15:25:14.168Z,99.90
2018-11-05T15:27:43.227Z,99.90
2018-11-05T15:30:15.054Z,99.90
2018-11-05T15:32:44.101Z,99.90
2018-11-05T15:35:13.031Z,99.90
2018-11-05T15:37:42.399Z,99.90
2018-11-05T15:40:13.085Z,99.90
2018-11-05T15:42:41.902Z,99.90
2018-11-05T15:45:12.181Z,99.90
2018-11-05T15:47:41.295Z,99.90
2018-11-05T15:50:11.979Z,99.90
2018-11-05T15:52:40.995Z,99.90
2018-11-05T15:55:09.758Z,99.90
2018-11-05T15:57:39.036Z,99.90
2018-11-05T16:00:16.301Z,99.90
2018-11-05T16:02:46.679Z,99.90
2018-11-05T16:05:15.506Z,99.90
2018-11-05T16:07:44.509Z,99.90
2018-11-05T16:10:13.326Z,99.90
2018-11-05T16:12:42.166Z,99.90
2018-11-05T16:15:12.363Z,99.90
2018-11-05T16:17:41.247Z,99.90
2018-11-05T16:20:22.971Z,99.90
2018-11-05T16:22:52.320Z,99.90
2018-11-05T16:25:21.288Z,99.90
2018-11-05T16:27:50.126Z,99.90
2018-11-05T16:30:20.285Z,99.90
2018-11-05T16:32:49.549Z,99.90
2018-11-05T16:35:18.452Z,99.90
2018-11-05T16:37:47.215Z,99.90
2018-11-05T16:40:17.202Z,99.90
2018-11-05T16:42:47.217Z,99.90
2018-11-05T16:45:15.978Z,99.90
2018-11-05T16:47:45.050Z,99.90
2018-11-05T16:50:18.761Z,99.90
2018-11-05T16:52:47.499Z,99.90
2018-11-05T16:55:16.384Z,99.90
2018-11-05T16:57:45.464Z,99.90
2018-11-05T17:00:14.864Z,99.90
2018-11-05T17:02:44.348Z,99.90
2018-11-05T17:05:13.067Z,99.90
2018-11-05T17:07:41.830Z,99.90
2018-11-05T17:10:11.872Z,99.90
2018-11-05T17:12:40.949Z,99.90
2018-11-05T17:15:11.537Z,99.90
2018-11-05T17:17:40.776Z,99.90
2018-11-05T17:20:11.362Z,99.90
2018-11-05T17:22:40.626Z,99.90
2018-11-05T17:25:09.796Z,99.90
2018-11-05T17:27:38.846Z,99.90
2018-11-05T17:30:12.871Z,99.90
2018-11-05T17:32:42.272Z,99.90
2018-11-05T17:35:11.784Z,99.90
2018-11-05T17:37:40.753Z,99.90
2018-11-05T17:40:11.717Z,99.90
2018-11-05T17:42:40.717Z,99.90
2018-11-05T17:45:10.959Z,99.90
2018-11-05T17:47:39.980Z,99.90
2018-11-05T17:50:11.315Z,99.90
2018-11-05T17:52:40.363Z,99.90
2018-11-05T17:55:10.079Z,99.90
2018-11-05T17:57:39.066Z,99.90
2018-11-05T18:00:10.304Z,99.90
2018-11-05T18:02:39.124Z,99.90
2018-11-05T18:05:08.036Z,99.90
2018-11-05T18:07:36.900Z,99.90
2018-11-05T18:10:06.800Z,99.90
2018-11-05T18:12:35.712Z,99.90
2018-11-05T18:15:05.799Z,99.90
2018-11-05T18:17:34.751Z,99.90
2018-11-05T18:20:04.154Z,99.90
2018-11-05T18:22:32.980Z,99.90
2018-11-05T18:25:01.874Z,99.90
2018-11-05T18:27:30.895Z,99.90
2018-11-05T18:29:59.945Z,99.90
2018-11-05T18:32:28.676Z,99.90
2018-11-05T18:34:58.513Z,99.90
2018-11-05T18:37:27.387Z,99.90
2018-11-05T18:39:56.322Z,99.90
2018-11-05T18:42:25.223Z,99.90
2018-11-05T18:44:54.031Z,99.90
2018-11-05T18:47:22.914Z,99.90
2018-11-05T18:49:52.016Z,99.90
2018-11-05T18:52:20.997Z,99.90
2018-11-05T18:54:50.060Z,99.90
2018-11-05T18:57:18.890Z,99.90
2018-11-05T18:59:47.899Z,99.90
2018-11-05T19:02:34.720Z,99.90
2018-11-05T19:05:05.472Z,99.90
2018-11-05T19:07:34.919Z,99.90
2018-11-05T19:10:05.545Z,99.90
2018-11-05T19:12:35.044Z,99.90
2018-11-05T19:15:04.045Z,99.90
2018-11-05T19:17:32.832Z,99.90
2018-11-05T19:20:01.756Z,99.90
2018-11-05T19:22:30.602Z,99.90
2018-11-05T19:24:59.384Z,99.90
2018-11-05T19:27:28.125Z,99.90
2018-11-05T19:29:56.964Z,99.90
2018-11-05T19:32:25.707Z,99.90
2018-11-05T19:34:54.498Z,99.90
2018-11-05T19:37:23.354Z,99.90
2018-11-05T19:39:54.612Z,99.90
2018-11-05T19:42:21.184Z,99.90
2018-11-05T19:44:50.607Z,99.90
2018-11-05T19:47:19.360Z,99.90
2018-11-05T19:49:48.226Z,99.90
2018-11-05T19:52:16.964Z,99.90
2018-11-05T19:54:45.791Z,99.90
2018-11-05T19:57:14.641Z,99.90
2018-11-05T19:59:43.539Z,99.90
2018-11-05T20:02:12.334Z,99.90
2018-11-05T20:04:41.976Z,99.90
2018-11-05T20:07:10.750Z,99.90
2018-11-05T20:09:39.511Z,99.90
2018-11-05T20:12:08.376Z,99.90
2018-11-05T20:14:41.558Z,99.90
2018-11-05T20:17:10.945Z,99.90
2018-11-05T20:19:39.757Z,99.90
2018-11-05T20:22:08.555Z,99.90
2018-11-05T20:24:37.356Z,99.90
2018-11-05T20:27:06.107Z,99.90
2018-11-05T20:29:34.998Z,99.90
2018-11-05T20:32:03.842Z,99.90
2018-11-05T20:34:32.849Z,99.90
2018-11-05T20:37:01.493Z,99.90
2018-11-05T20:39:30.289Z,99.90
2018-11-05T20:41:59.070Z,99.90
2018-11-05T20:44:27.832Z,99.90
2018-11-05T20:46:56.908Z,99.90
2018-11-05T20:49:25.679Z,99.90
2018-11-05T20:51:54.579Z,99.90
2018-11-05T20:54:23.363Z,99.90
2018-11-05T20:56:52.151Z,99.90
2018-11-05T20:59:20.896Z,99.90
2018-11-05T21:01:49.694Z,99.90
2018-11-05T21:04:18.476Z,99.90
2018-11-05T21:06:47.280Z,99.90
2018-11-05T21:09:16.296Z,99.90
2018-11-05T21:11:45.180Z,99.90
2018-11-05T21:14:13.960Z,99.90
2018-11-05T21:16:42.776Z,99.90
2018-11-05T21:19:11.569Z,99.90
2018-11-05T21:21:40.595Z,99.90
2018-11-05T21:24:09.303Z,99.90
2018-11-05T21:26:38.127Z,99.90
2018-11-05T21:29:07.039Z,99.90
2018-11-05T21:31:35.846Z,99.90
2018-11-05T21:34:04.941Z,99.90
2018-11-05T21:36:34.555Z,99.90
2018-11-05T21:39:03.491Z,99.90
2018-11-05T21:41:32.355Z,99.90
2018-11-05T21:44:01.152Z,99.90
2018-11-05T21:46:30.030Z,99.90
2018-11-05T21:48:58.890Z,99.90
2018-11-05T21:51:27.690Z,99.90
2018-11-05T21:53:56.548Z,99.90
2018-11-05T21:56:25.509Z,99.90
2018-11-05T21:58:54.883Z,99.90
2018-11-05T22:01:24.923Z,99.90
2018-11-05T22:03:53.812Z,99.90
2018-11-05T22:06:22.877Z,99.90
2018-11-05T22:08:51.724Z,99.90
2018-11-05T22:11:20.494Z,99.90
2018-11-05T22:13:49.378Z,99.90
2018-11-05T22:16:18.177Z,99.90
2018-11-05T22:18:46.985Z,99.90
2018-11-05T22:21:15.716Z,99.90
2018-11-05T22:23:44.503Z,99.90
2018-11-05T22:26:13.221Z,99.90
2018-11-05T22:28:41.980Z,99.90
2018-11-05T22:31:10.767Z,99.90
2018-11-05T22:33:39.717Z,99.90
2018-11-05T22:36:09.403Z,99.90
2018-11-05T22:38:38.158Z,99.90
2018-11-05T22:41:07.146Z,99.90
2018-11-05T22:43:35.892Z,99.90
2018-11-05T22:46:04.635Z,99.90
2018-11-05T22:48:33.409Z,99.90
2018-11-05T22:51:02.204Z,99.90
2018-11-05T22:53:31.119Z,99.90
2018-11-05T22:55:59.902Z,99.90
2018-11-05T22:58:28.707Z,99.90
2018-11-05T23:01:03.334Z,99.90
2018-11-05T23:03:32.130Z,99.90
2018-11-05T23:06:01.075Z,99.90
2018-11-05T23:08:30.038Z,99.90
2018-11-05T23:10:58.935Z,99.90
2018-11-05T23:13:27.764Z,99.90
2018-11-05T23:15:56.512Z,99.90
2018-11-05T23:18:25.292Z,99.90
2018-11-05T23:20:54.032Z,99.90
2018-11-05T23:23:22.795Z,99.90
2018-11-05T23:25:51.568Z,99.90
2018-11-05T23:28:20.360Z,99.90
2018-11-05T23:30:49.152Z,99.90
2018-11-05T23:33:17.984Z,99.90
2018-11-05T23:35:46.722Z,99.90
2018-11-05T23:38:15.543Z,99.90
2018-11-05T23:40:44.289Z,99.90
2018-11-05T23:43:13.092Z,99.90
2018-11-05T23:45:41.815Z,99.90
2018-11-05T23:48:10.599Z,99.90
2018-11-05T23:50:39.379Z,99.90
2018-11-05T23:53:08.155Z,99.90
2018-11-05T23:55:36.863Z,99.90
2018-11-05T23:58:05.769Z,99.90
